Terminal Aerodrome Forecast
Issued by NWS Charleston, WV

Current Version | Previous Version | Text Only | Print | Product List | Glossary Off
Versions: 1 2 3 4 5 6 7 8 9 10 11 12 13 14 15 16 17 18 19 20 21 22

000
FTUS41 KRLX 031504 AAA
TAFHTS
TAF AMD
KHTS 031504Z 0315/0412 VRB03KT P6SM BKN050 OVC060
     FM031700 VRB03KT P6SM VCTS BKN035CB
     FM032200 VRB03KT P6SM SCT035
     FM040300 00000KT 6SM HZ SCT045=

USA.gov is the U.S. government's official web portal to all federal, state and local government web resources and services.